sensor_id;sensor_type;location;lat;lon;timestamp;P1;durP1;ratioP1;P2;durP2;ratioP2
22737;SDS011;11536;50.860;4.286;2023-12-14T00:00:46;26.30;;;11.15;;
22737;SDS011;11536;50.860;4.286;2023-12-14T00:03:12;28.25;;;10.70;;
22737;SDS011;11536;50.860;4.286;2023-12-14T00:05:38;29.73;;;11.80;;
22737;SDS011;11536;50.860;4.286;2023-12-14T00:08:03;28.40;;;10.70;;
22737;SDS011;11536;50.860;4.286;2023-12-14T00:10:29;32.95;;;11.70;;
22737;SDS011;11536;50.860;4.286;2023-12-14T00:12:55;27.67;;;10.95;;
22737;SDS011;11536;50.860;4.286;2023-12-14T00:15:20;32.13;;;11.18;;
22737;SDS011;11536;50.860;4.286;2023-12-14T00:17:46;26.42;;;10.80;;
22737;SDS011;11536;50.860;4.286;2023-12-14T00:20:12;25.00;;;10.38;;
22737;SDS011;11536;50.860;4.286;2023-12-14T00:22:39;27.70;;;10.13;;
22737;SDS011;11536;50.860;4.286;2023-12-14T00:25:05;26.50;;;10.27;;
22737;SDS011;11536;50.860;4.286;2023-12-14T00:27:31;24.67;;;10.27;;
22737;SDS011;11536;50.860;4.286;2023-12-14T00:29:56;28.88;;;11.05;;
22737;SDS011;11536;50.860;4.286;2023-12-14T00:32:22;31.23;;;12.10;;
22737;SDS011;11536;50.860;4.286;2023-12-14T00:34:47;31.17;;;11.73;;
22737;SDS011;11536;50.860;4.286;2023-12-14T00:37:13;29.00;;;12.48;;
22737;SDS011;11536;50.860;4.286;2023-12-14T00:39:39;32.30;;;12.40;;
22737;SDS011;11536;50.860;4.286;2023-12-14T00:42:05;28.92;;;12.13;;
22737;SDS011;11536;50.860;4.286;2023-12-14T00:44:31;34.58;;;13.23;;
22737;SDS011;11536;50.860;4.286;2023-12-14T00:46:56;31.40;;;12.60;;
22737;SDS011;11536;50.860;4.286;2023-12-14T00:49:23;31.35;;;12.20;;
22737;SDS011;11536;50.860;4.286;2023-12-14T00:51:49;31.65;;;11.95;;
22737;SDS011;11536;50.860;4.286;2023-12-14T00:54:14;35.72;;;13.60;;
22737;SDS011;11536;50.860;4.286;2023-12-14T00:56:40;30.83;;;12.82;;
22737;SDS011;11536;50.860;4.286;2023-12-14T00:59:06;32.20;;;12.73;;
22737;SDS011;11536;50.860;4.286;2023-12-14T01:01:31;38.15;;;13.57;;
22737;SDS011;11536;50.860;4.286;2023-12-14T01:03:57;34.63;;;13.70;;
22737;SDS011;11536;50.860;4.286;2023-12-14T01:06:24;40.67;;;13.57;;
22737;SDS011;11536;50.860;4.286;2023-12-14T01:08:50;38.50;;;14.70;;
22737;SDS011;11536;50.860;4.286;2023-12-14T01:11:15;35.28;;;13.48;;
22737;SDS011;11536;50.860;4.286;2023-12-14T01:13:41;43.15;;;14.35;;
22737;SDS011;11536;50.860;4.286;2023-12-14T01:16:07;35.83;;;14.20;;
22737;SDS011;11536;50.860;4.286;2023-12-14T01:18:33;35.97;;;13.48;;
22737;SDS011;11536;50.860;4.286;2023-12-14T01:20:58;38.97;;;14.30;;
22737;SDS011;11536;50.860;4.286;2023-12-14T01:23:24;37.63;;;13.70;;
22737;SDS011;11536;50.860;4.286;2023-12-14T01:25:50;39.97;;;14.45;;
22737;SDS011;11536;50.860;4.286;2023-12-14T01:28:15;36.00;;;13.05;;
22737;SDS011;11536;50.860;4.286;2023-12-14T01:30:41;37.42;;;14.00;;
22737;SDS011;11536;50.860;4.286;2023-12-14T01:33:06;37.38;;;12.90;;
22737;SDS011;11536;50.860;4.286;2023-12-14T01:35:32;36.25;;;13.40;;
22737;SDS011;11536;50.860;4.286;2023-12-14T01:37:58;34.95;;;13.05;;
22737;SDS011;11536;50.860;4.286;2023-12-14T01:40:23;38.22;;;12.50;;
22737;SDS011;11536;50.860;4.286;2023-12-14T01:42:49;40.03;;;13.32;;
22737;SDS011;11536;50.860;4.286;2023-12-14T01:45:14;32.78;;;12.43;;
22737;SDS011;11536;50.860;4.286;2023-12-14T01:47:42;31.80;;;12.20;;
22737;SDS011;11536;50.860;4.286;2023-12-14T01:50:08;33.13;;;12.50;;
22737;SDS011;11536;50.860;4.286;2023-12-14T01:52:34;35.40;;;13.75;;
22737;SDS011;11536;50.860;4.286;2023-12-14T01:54:59;32.55;;;12.80;;
22737;SDS011;11536;50.860;4.286;2023-12-14T01:57:27;35.47;;;12.95;;
22737;SDS011;11536;50.860;4.286;2023-12-14T01:59:53;35.88;;;13.77;;
22737;SDS011;11536;50.860;4.286;2023-12-14T02:02:18;40.55;;;13.73;;
22737;SDS011;11536;50.860;4.286;2023-12-14T02:04:44;34.65;;;13.77;;
22737;SDS011;11536;50.860;4.286;2023-12-14T02:07:10;41.22;;;13.82;;
22737;SDS011;11536;50.860;4.286;2023-12-14T02:09:36;33.25;;;12.68;;
22737;SDS011;11536;50.860;4.286;2023-12-14T02:12:01;41.80;;;13.85;;
22737;SDS011;11536;50.860;4.286;2023-12-14T02:14:27;31.10;;;12.57;;
22737;SDS011;11536;50.860;4.286;2023-12-14T02:16:53;36.25;;;13.63;;
22737;SDS011;11536;50.860;4.286;2023-12-14T02:19:18;31.45;;;13.80;;
22737;SDS011;11536;50.860;4.286;2023-12-14T02:21:44;32.72;;;12.00;;
22737;SDS011;11536;50.860;4.286;2023-12-14T02:24:10;34.10;;;12.88;;
22737;SDS011;11536;50.860;4.286;2023-12-14T02:26:35;32.60;;;12.30;;
22737;SDS011;11536;50.860;4.286;2023-12-14T02:29:01;32.85;;;12.25;;
22737;SDS011;11536;50.860;4.286;2023-12-14T02:31:27;36.10;;;12.88;;
22737;SDS011;11536;50.860;4.286;2023-12-14T02:33:52;29.95;;;11.82;;
22737;SDS011;11536;50.860;4.286;2023-12-14T02:36:18;30.08;;;12.10;;
22737;SDS011;11536;50.860;4.286;2023-12-14T02:38:43;26.73;;;11.60;;
22737;SDS011;11536;50.860;4.286;2023-12-14T02:41:10;27.65;;;10.60;;
22737;SDS011;11536;50.860;4.286;2023-12-14T02:43:35;29.10;;;10.85;;
22737;SDS011;11536;50.860;4.286;2023-12-14T02:46:03;34.00;;;11.82;;
22737;SDS011;11536;50.860;4.286;2023-12-14T02:48:29;30.10;;;11.82;;
22737;SDS011;11536;50.860;4.286;2023-12-14T02:50:54;31.67;;;11.20;;
22737;SDS011;11536;50.860;4.286;2023-12-14T02:53:20;31.90;;;12.15;;
22737;SDS011;11536;50.860;4.286;2023-12-14T02:55:46;28.90;;;11.63;;
22737;SDS011;11536;50.860;4.286;2023-12-14T02:58:12;30.92;;;11.88;;
22737;SDS011;11536;50.860;4.286;2023-12-14T03:00:37;29.63;;;10.40;;
22737;SDS011;11536;50.860;4.286;2023-12-14T03:03:03;27.98;;;10.73;;
22737;SDS011;11536;50.860;4.286;2023-12-14T03:05:29;26.05;;;10.95;;
22737;SDS011;11536;50.860;4.286;2023-12-14T03:07:54;28.38;;;10.23;;
22737;SDS011;11536;50.860;4.286;2023-12-14T03:10:20;28.00;;;10.63;;
22737;SDS011;11536;50.860;4.286;2023-12-14T03:12:45;26.20;;;9.68;;
22737;SDS011;11536;50.860;4.286;2023-12-14T03:15:11;27.27;;;9.40;;
22737;SDS011;11536;50.860;4.286;2023-12-14T03:17:37;24.42;;;9.60;;
22737;SDS011;11536;50.860;4.286;2023-12-14T03:20:02;25.40;;;10.27;;
22737;SDS011;11536;50.860;4.286;2023-12-14T03:22:30;24.35;;;9.80;;
22737;SDS011;11536;50.860;4.286;2023-12-14T03:24:56;25.25;;;10.02;;
22737;SDS011;11536;50.860;4.286;2023-12-14T03:27:21;23.70;;;10.07;;
22737;SDS011;11536;50.860;4.286;2023-12-14T03:29:48;25.92;;;10.20;;
22737;SDS011;11536;50.860;4.286;2023-12-14T03:32:14;26.48;;;10.45;;
22737;SDS011;11536;50.860;4.286;2023-12-14T03:34:39;25.35;;;9.52;;
22737;SDS011;11536;50.860;4.286;2023-12-14T03:37:05;23.88;;;9.85;;
22737;SDS011;11536;50.860;4.286;2023-12-14T03:39:31;23.77;;;10.07;;
22737;SDS011;11536;50.860;4.286;2023-12-14T03:41:57;22.25;;;8.77;;
22737;SDS011;11536;50.860;4.286;2023-12-14T03:44:22;24.85;;;9.50;;
22737;SDS011;11536;50.860;4.286;2023-12-14T03:46:49;21.02;;;9.40;;
22737;SDS011;11536;50.860;4.286;2023-12-14T03:49:15;25.23;;;10.98;;
22737;SDS011;11536;50.860;4.286;2023-12-14T03:51:40;26.00;;;10.27;;
22737;SDS011;11536;50.860;4.286;2023-12-14T03:54:06;27.35;;;10.70;;
22737;SDS011;11536;50.860;4.286;2023-12-14T03:56:32;26.73;;;10.13;;
22737;SDS011;11536;50.860;4.286;2023-12-14T03:58:57;24.65;;;8.90;;
22737;SDS011;11536;50.860;4.286;2023-12-14T04:01:23;24.15;;;8.50;;
22737;SDS011;11536;50.860;4.286;2023-12-14T04:03:49;22.23;;;8.50;;
22737;SDS011;11536;50.860;4.286;2023-12-14T04:06:14;18.85;;;8.82;;
22737;SDS011;11536;50.860;4.286;2023-12-14T04:08:41;21.15;;;8.45;;
22737;SDS011;11536;50.860;4.286;2023-12-14T04:11:07;22.77;;;9.43;;
22737;SDS011;11536;50.860;4.286;2023-12-14T04:13:33;20.80;;;8.88;;
22737;SDS011;11536;50.860;4.286;2023-12-14T04:15:59;22.80;;;9.55;;
22737;SDS011;11536;50.860;4.286;2023-12-14T04:18:25;21.13;;;9.85;;
22737;SDS011;11536;50.860;4.286;2023-12-14T04:20:51;20.30;;;9.25;;
22737;SDS011;11536;50.860;4.286;2023-12-14T04:23:16;18.67;;;8.35;;
22737;SDS011;11536;50.860;4.286;2023-12-14T04:25:43;18.30;;;8.40;;
22737;SDS011;11536;50.860;4.286;2023-12-14T04:28:08;22.30;;;8.40;;
22737;SDS011;11536;50.860;4.286;2023-12-14T04:30:34;16.75;;;7.22;;
22737;SDS011;11536;50.860;4.286;2023-12-14T04:32:59;17.40;;;8.60;;
22737;SDS011;11536;50.860;4.286;2023-12-14T04:35:25;19.92;;;8.85;;
22737;SDS011;11536;50.860;4.286;2023-12-14T04:37:51;19.17;;;8.27;;
22737;SDS011;11536;50.860;4.286;2023-12-14T04:40:16;18.40;;;9.05;;
22737;SDS011;11536;50.860;4.286;2023-12-14T04:42:42;21.27;;;9.65;;
22737;SDS011;11536;50.860;4.286;2023-12-14T04:45:08;21.00;;;9.55;;
22737;SDS011;11536;50.860;4.286;2023-12-14T04:47:34;19.17;;;9.23;;
22737;SDS011;11536;50.860;4.286;2023-12-14T04:50:01;23.13;;;9.85;;
22737;SDS011;11536;50.860;4.286;2023-12-14T04:52:27;19.52;;;10.55;;
22737;SDS011;11536;50.860;4.286;2023-12-14T04:54:53;20.90;;;10.25;;
22737;SDS011;11536;50.860;4.286;2023-12-14T04:57:18;21.02;;;9.80;;
22737;SDS011;11536;50.860;4.286;2023-12-14T04:59:44;20.13;;;9.25;;
22737;SDS011;11536;50.860;4.286;2023-12-14T05:02:09;17.65;;;8.95;;
22737;SDS011;11536;50.860;4.286;2023-12-14T05:04:35;19.10;;;9.43;;
22737;SDS011;11536;50.860;4.286;2023-12-14T05:07:01;19.58;;;9.55;;
22737;SDS011;11536;50.860;4.286;2023-12-14T05:09:27;22.15;;;9.68;;
22737;SDS011;11536;50.860;4.286;2023-12-14T05:11:53;20.23;;;9.18;;
22737;SDS011;11536;50.860;4.286;2023-12-14T05:14:19;18.58;;;9.23;;
22737;SDS011;11536;50.860;4.286;2023-12-14T05:16:44;20.67;;;9.55;;
22737;SDS011;11536;50.860;4.286;2023-12-14T05:19:10;19.73;;;9.30;;
22737;SDS011;11536;50.860;4.286;2023-12-14T05:21:37;21.83;;;9.73;;
22737;SDS011;11536;50.860;4.286;2023-12-14T05:24:03;22.48;;;9.75;;
22737;SDS011;11536;50.860;4.286;2023-12-14T05:26:29;20.55;;;9.75;;
22737;SDS011;11536;50.860;4.286;2023-12-14T05:28:54;20.20;;;9.80;;
22737;SDS011;11536;50.860;4.286;2023-12-14T05:31:20;20.20;;;9.60;;
22737;SDS011;11536;50.860;4.286;2023-12-14T05:33:46;22.40;;;10.25;;
22737;SDS011;11536;50.860;4.286;2023-12-14T05:36:11;22.00;;;10.50;;
22737;SDS011;11536;50.860;4.286;2023-12-14T05:38:40;20.60;;;9.55;;
22737;SDS011;11536;50.860;4.286;2023-12-14T05:41:06;23.25;;;10.27;;
22737;SDS011;11536;50.860;4.286;2023-12-14T05:43:32;21.05;;;9.48;;
22737;SDS011;11536;50.860;4.286;2023-12-14T05:45:58;22.77;;;9.55;;
22737;SDS011;11536;50.860;4.286;2023-12-14T05:48:24;19.98;;;9.45;;
22737;SDS011;11536;50.860;4.286;2023-12-14T05:50:51;20.35;;;9.52;;
22737;SDS011;11536;50.860;4.286;2023-12-14T05:53:17;18.80;;;8.88;;
22737;SDS011;11536;50.860;4.286;2023-12-14T05:55:43;20.42;;;9.63;;
22737;SDS011;11536;50.860;4.286;2023-12-14T05:58:09;19.85;;;9.68;;
22737;SDS011;11536;50.860;4.286;2023-12-14T06:00:35;19.17;;;9.00;;
22737;SDS011;11536;50.860;4.286;2023-12-14T06:03:01;19.52;;;8.70;;
22737;SDS011;11536;50.860;4.286;2023-12-14T06:05:27;19.23;;;8.80;;
22737;SDS011;11536;50.860;4.286;2023-12-14T06:07:52;18.48;;;8.07;;
22737;SDS011;11536;50.860;4.286;2023-12-14T06:10:18;16.05;;;7.90;;
22737;SDS011;11536;50.860;4.286;2023-12-14T06:12:44;21.13;;;8.73;;
22737;SDS011;11536;50.860;4.286;2023-12-14T06:15:10;19.15;;;8.52;;
22737;SDS011;11536;50.860;4.286;2023-12-14T06:17:36;16.95;;;8.18;;
22737;SDS011;11536;50.860;4.286;2023-12-14T06:20:04;20.48;;;8.77;;
22737;SDS011;11536;50.860;4.286;2023-12-14T06:22:31;17.70;;;9.07;;
22737;SDS011;11536;50.860;4.286;2023-12-14T06:24:57;18.17;;;8.75;;
22737;SDS011;11536;50.860;4.286;2023-12-14T06:27:23;19.52;;;8.15;;
22737;SDS011;11536;50.860;4.286;2023-12-14T06:29:51;18.35;;;8.23;;
22737;SDS011;11536;50.860;4.286;2023-12-14T06:32:17;17.73;;;8.23;;
22737;SDS011;11536;50.860;4.286;2023-12-14T06:34:43;17.02;;;8.15;;
22737;SDS011;11536;50.860;4.286;2023-12-14T06:37:08;18.35;;;7.57;;
22737;SDS011;11536;50.860;4.286;2023-12-14T06:39:34;18.75;;;7.82;;
22737;SDS011;11536;50.860;4.286;2023-12-14T06:42:00;21.33;;;8.43;;
22737;SDS011;11536;50.860;4.286;2023-12-14T06:44:27;16.52;;;7.63;;
22737;SDS011;11536;50.860;4.286;2023-12-14T06:46:53;19.13;;;7.55;;
22737;SDS011;11536;50.860;4.286;2023-12-14T06:49:20;16.05;;;7.47;;
22737;SDS011;11536;50.860;4.286;2023-12-14T06:51:46;17.17;;;6.40;;
22737;SDS011;11536;50.860;4.286;2023-12-14T06:54:11;17.33;;;6.70;;
22737;SDS011;11536;50.860;4.286;2023-12-14T06:56:37;18.38;;;6.75;;
22737;SDS011;11536;50.860;4.286;2023-12-14T06:59:03;14.27;;;6.60;;
22737;SDS011;11536;50.860;4.286;2023-12-14T07:01:28;12.48;;;5.32;;
22737;SDS011;11536;50.860;4.286;2023-12-14T07:03:54;18.63;;;7.35;;
22737;SDS011;11536;50.860;4.286;2023-12-14T07:06:20;15.57;;;6.57;;
22737;SDS011;11536;50.860;4.286;2023-12-14T07:08:46;15.93;;;6.47;;
22737;SDS011;11536;50.860;4.286;2023-12-14T07:11:12;13.38;;;5.75;;
22737;SDS011;11536;50.860;4.286;2023-12-14T07:13:39;12.63;;;6.00;;
22737;SDS011;11536;50.860;4.286;2023-12-14T07:16:08;14.60;;;6.53;;
22737;SDS011;11536;50.860;4.286;2023-12-14T07:18:35;15.95;;;5.97;;
22737;SDS011;11536;50.860;4.286;2023-12-14T07:21:02;16.35;;;6.47;;
22737;SDS011;11536;50.860;4.286;2023-12-14T07:23:28;14.35;;;6.32;;
22737;SDS011;11536;50.860;4.286;2023-12-14T07:25:54;16.67;;;6.60;;
22737;SDS011;11536;50.860;4.286;2023-12-14T07:28:20;14.60;;;6.75;;
22737;SDS011;11536;50.860;4.286;2023-12-14T07:30:46;17.17;;;6.60;;
22737;SDS011;11536;50.860;4.286;2023-12-14T07:33:12;13.98;;;6.25;;
22737;SDS011;11536;50.860;4.286;2023-12-14T07:35:39;13.30;;;6.45;;
22737;SDS011;11536;50.860;4.286;2023-12-14T07:38:04;14.20;;;6.00;;
22737;SDS011;11536;50.860;4.286;2023-12-14T07:40:30;13.80;;;6.97;;
22737;SDS011;11536;50.860;4.286;2023-12-14T07:42:56;15.52;;;6.38;;
22737;SDS011;11536;50.860;4.286;2023-12-14T07:45:21;17.02;;;6.05;;
22737;SDS011;11536;50.860;4.286;2023-12-14T07:47:47;13.40;;;6.15;;
22737;SDS011;11536;50.860;4.286;2023-12-14T07:50:12;14.82;;;6.30;;
22737;SDS011;11536;50.860;4.286;2023-12-14T07:52:39;11.65;;;5.57;;
22737;SDS011;11536;50.860;4.286;2023-12-14T07:55:05;14.05;;;5.78;;
22737;SDS011;11536;50.860;4.286;2023-12-14T07:57:31;12.93;;;5.25;;
22737;SDS011;11536;50.860;4.286;2023-12-14T07:59:57;14.15;;;5.40;;
22737;SDS011;11536;50.860;4.286;2023-12-14T08:02:23;16.75;;;6.13;;
22737;SDS011;11536;50.860;4.286;2023-12-14T08:04:48;12.80;;;5.80;;
22737;SDS011;11536;50.860;4.286;2023-12-14T08:07:14;15.00;;;5.82;;
22737;SDS011;11536;50.860;4.286;2023-12-14T08:09:40;12.20;;;5.07;;
22737;SDS011;11536;50.860;4.286;2023-12-14T08:12:06;15.73;;;6.00;;
22737;SDS011;11536;50.860;4.286;2023-12-14T08:14:32;12.38;;;5.05;;
22737;SDS011;11536;50.860;4.286;2023-12-14T08:16:59;11.70;;;5.25;;
22737;SDS011;11536;50.860;4.286;2023-12-14T08:19:26;12.13;;;5.07;;
22737;SDS011;11536;50.860;4.286;2023-12-14T08:21:52;12.73;;;5.10;;
22737;SDS011;11536;50.860;4.286;2023-12-14T08:24:18;13.43;;;5.22;;
22737;SDS011;11536;50.860;4.286;2023-12-14T08:26:43;11.23;;;5.28;;
22737;SDS011;11536;50.860;4.286;2023-12-14T08:29:09;13.93;;;5.53;;
22737;SDS011;11536;50.860;4.286;2023-12-14T08:31:35;15.98;;;5.90;;
22737;SDS011;11536;50.860;4.286;2023-12-14T08:34:00;10.20;;;5.20;;
22737;SDS011;11536;50.860;4.286;2023-12-14T08:36:26;14.60;;;5.53;;
22737;SDS011;11536;50.860;4.286;2023-12-14T08:38:51;14.73;;;5.43;;
22737;SDS011;11536;50.860;4.286;2023-12-14T08:41:17;11.73;;;5.38;;
22737;SDS011;11536;50.860;4.286;2023-12-14T08:43:43;11.77;;;5.50;;
22737;SDS011;11536;50.860;4.286;2023-12-14T08:46:09;11.90;;;6.07;;
22737;SDS011;11536;50.860;4.286;2023-12-14T08:48:37;13.35;;;7.05;;
22737;SDS011;11536;50.860;4.286;2023-12-14T08:51:03;11.38;;;5.88;;
22737;SDS011;11536;50.860;4.286;2023-12-14T08:53:30;15.30;;;5.60;;
22737;SDS011;11536;50.860;4.286;2023-12-14T08:55:55;14.90;;;5.85;;
22737;SDS011;11536;50.860;4.286;2023-12-14T08:58:21;15.80;;;5.97;;
22737;SDS011;11536;50.860;4.286;2023-12-14T09:00:47;14.52;;;6.20;;
22737;SDS011;11536;50.860;4.286;2023-12-14T09:03:17;11.10;;;5.40;;
22737;SDS011;11536;50.860;4.286;2023-12-14T09:05:43;12.05;;;5.45;;
22737;SDS011;11536;50.860;4.286;2023-12-14T09:08:10;13.30;;;5.20;;
22737;SDS011;11536;50.860;4.286;2023-12-14T09:10:35;13.20;;;5.82;;
22737;SDS011;11536;50.860;4.286;2023-12-14T09:13:01;12.43;;;4.82;;
22737;SDS011;11536;50.860;4.286;2023-12-14T09:15:29;12.50;;;5.60;;
22737;SDS011;11536;50.860;4.286;2023-12-14T09:17:58;12.70;;;4.82;;
22737;SDS011;11536;50.860;4.286;2023-12-14T09:20:24;12.13;;;5.22;;
22737;SDS011;11536;50.860;4.286;2023-12-14T09:22:49;11.27;;;4.60;;
22737;SDS011;11536;50.860;4.286;2023-12-14T09:25:15;10.98;;;4.30;;
22737;SDS011;11536;50.860;4.286;2023-12-14T09:27:41;11.57;;;4.72;;
22737;SDS011;11536;50.860;4.286;2023-12-14T09:30:07;10.68;;;4.63;;
22737;SDS011;11536;50.860;4.286;2023-12-14T09:32:33;9.63;;;3.95;;
22737;SDS011;11536;50.860;4.286;2023-12-14T09:34:59;10.60;;;4.07;;
22737;SDS011;11536;50.860;4.286;2023-12-14T09:37:25;11.98;;;3.70;;
22737;SDS011;11536;50.860;4.286;2023-12-14T09:39:51;9.48;;;3.95;;
22737;SDS011;11536;50.860;4.286;2023-12-14T09:42:20;10.27;;;4.18;;
22737;SDS011;11536;50.860;4.286;2023-12-14T09:44:47;8.57;;;4.15;;
22737;SDS011;11536;50.860;4.286;2023-12-14T09:47:13;9.27;;;3.97;;
22737;SDS011;11536;50.860;4.286;2023-12-14T09:49:39;11.88;;;4.38;;
22737;SDS011;11536;50.860;4.286;2023-12-14T09:52:08;10.50;;;4.43;;
22737;SDS011;11536;50.860;4.286;2023-12-14T09:54:34;11.32;;;4.20;;
22737;SDS011;11536;50.860;4.286;2023-12-14T09:56:59;9.23;;;3.83;;
22737;SDS011;11536;50.860;4.286;2023-12-14T09:59:25;9.38;;;4.13;;
22737;SDS011;11536;50.860;4.286;2023-12-14T10:01:50;8.02;;;3.47;;
22737;SDS011;11536;50.860;4.286;2023-12-14T10:04:17;7.95;;;3.55;;
22737;SDS011;11536;50.860;4.286;2023-12-14T10:06:44;9.70;;;4.18;;
22737;SDS011;11536;50.860;4.286;2023-12-14T10:09:12;11.18;;;3.95;;
22737;SDS011;11536;50.860;4.286;2023-12-14T10:11:40;9.30;;;3.30;;
22737;SDS011;11536;50.860;4.286;2023-12-14T10:17:17;9.65;;;3.30;;
22737;SDS011;11536;50.860;4.286;2023-12-14T10:19:44;7.85;;;3.15;;
22737;SDS011;11536;50.860;4.286;2023-12-14T10:22:13;11.80;;;4.00;;
22737;SDS011;11536;50.860;4.286;2023-12-14T10:24:45;8.57;;;3.35;;
22737;SDS011;11536;50.860;4.286;2023-12-14T10:27:12;10.43;;;3.35;;
22737;SDS011;11536;50.860;4.286;2023-12-14T10:29:40;10.00;;;3.30;;
22737;SDS011;11536;50.860;4.286;2023-12-14T10:32:07;8.52;;;3.40;;
22737;SDS011;11536;50.860;4.286;2023-12-14T10:34:35;7.00;;;3.13;;
22737;SDS011;11536;50.860;4.286;2023-12-14T10:37:01;13.50;;;3.55;;
22737;SDS011;11536;50.860;4.286;2023-12-14T10:39:31;8.82;;;3.55;;
22737;SDS011;11536;50.860;4.286;2023-12-14T10:41:58;8.98;;;3.00;;
22737;SDS011;11536;50.860;4.286;2023-12-14T10:44:26;7.35;;;2.40;;
22737;SDS011;11536;50.860;4.286;2023-12-14T10:46:55;8.00;;;3.08;;
22737;SDS011;11536;50.860;4.286;2023-12-14T10:49:23;7.90;;;2.97;;
22737;SDS011;11536;50.860;4.286;2023-12-14T10:51:50;6.97;;;3.13;;
22737;SDS011;11536;50.860;4.286;2023-12-14T10:54:17;7.22;;;2.88;;
22737;SDS011;11536;50.860;4.286;2023-12-14T10:56:44;7.15;;;3.17;;
22737;SDS011;11536;50.860;4.286;2023-12-14T10:59:09;10.45;;;3.50;;
22737;SDS011;11536;50.860;4.286;2023-12-14T11:01:35;8.82;;;3.58;;
22737;SDS011;11536;50.860;4.286;2023-12-14T11:04:05;9.93;;;3.65;;
22737;SDS011;11536;50.860;4.286;2023-12-14T11:06:32;10.25;;;3.13;;
22737;SDS011;11536;50.860;4.286;2023-12-14T11:09:01;11.23;;;3.88;;
22737;SDS011;11536;50.860;4.286;2023-12-14T11:11:41;8.70;;;3.28;;
22737;SDS011;11536;50.860;4.286;2023-12-14T11:14:10;9.57;;;4.07;;
22737;SDS011;11536;50.860;4.286;2023-12-14T11:16:37;8.50;;;3.70;;
22737;SDS011;11536;50.860;4.286;2023-12-14T11:21:47;12.30;;;4.30;;
22737;SDS011;11536;50.860;4.286;2023-12-14T11:24:13;8.98;;;3.38;;
22737;SDS011;11536;50.860;4.286;2023-12-14T11:26:39;9.40;;;4.00;;
22737;SDS011;11536;50.860;4.286;2023-12-14T11:29:06;10.23;;;4.00;;
22737;SDS011;11536;50.860;4.286;2023-12-14T11:31:32;8.13;;;3.83;;
22737;SDS011;11536;50.860;4.286;2023-12-14T11:33:59;9.52;;;4.40;;
22737;SDS011;11536;50.860;4.286;2023-12-14T11:36:26;10.75;;;3.72;;
22737;SDS011;11536;50.860;4.286;2023-12-14T11:38:52;10.77;;;4.65;;
22737;SDS011;11536;50.860;4.286;2023-12-14T11:41:23;7.95;;;3.47;;
22737;SDS011;11536;50.860;4.286;2023-12-14T11:43:54;10.15;;;4.18;;
22737;SDS011;11536;50.860;4.286;2023-12-14T11:46:20;11.30;;;3.75;;
22737;SDS011;11536;50.860;4.286;2023-12-14T11:48:46;13.25;;;4.22;;
22737;SDS011;11536;50.860;4.286;2023-12-14T11:51:14;8.88;;;3.90;;
22737;SDS011;11536;50.860;4.286;2023-12-14T11:53:43;11.85;;;4.15;;
22737;SDS011;11536;50.860;4.286;2023-12-14T11:56:14;10.15;;;3.67;;
22737;SDS011;11536;50.860;4.286;2023-12-14T11:58:44;8.63;;;3.60;;
22737;SDS011;11536;50.860;4.286;2023-12-14T12:01:13;11.77;;;3.47;;
22737;SDS011;11536;50.860;4.286;2023-12-14T12:06:58;10.15;;;3.88;;
22737;SDS011;11536;50.860;4.286;2023-12-14T12:12:05;10.88;;;4.32;;
22737;SDS011;11536;50.860;4.286;2023-12-14T12:14:31;10.13;;;3.65;;
22737;SDS011;11536;50.860;4.286;2023-12-14T12:16:57;8.98;;;4.00;;
22737;SDS011;11536;50.860;4.286;2023-12-14T12:19:22;11.38;;;4.22;;
22737;SDS011;11536;50.860;4.286;2023-12-14T12:21:49;8.98;;;4.10;;
22737;SDS011;11536;50.860;4.286;2023-12-14T12:24:20;10.90;;;3.63;;
22737;SDS011;11536;50.860;4.286;2023-12-14T12:26:46;9.95;;;3.28;;
22737;SDS011;11536;50.860;4.286;2023-12-14T12:29:12;8.80;;;3.13;;
22737;SDS011;11536;50.860;4.286;2023-12-14T12:31:41;8.57;;;3.30;;
22737;SDS011;11536;50.860;4.286;2023-12-14T12:34:07;9.65;;;2.90;;
22737;SDS011;11536;50.860;4.286;2023-12-14T12:36:34;9.18;;;2.83;;
22737;SDS011;11536;50.860;4.286;2023-12-14T12:39:00;9.05;;;3.42;;
22737;SDS011;11536;50.860;4.286;2023-12-14T12:41:25;10.23;;;3.13;;
22737;SDS011;11536;50.860;4.286;2023-12-14T12:43:51;11.10;;;2.88;;
22737;SDS011;11536;50.860;4.286;2023-12-14T12:46:17;7.88;;;2.92;;
22737;SDS011;11536;50.860;4.286;2023-12-14T12:48:43;11.57;;;3.95;;
22737;SDS011;11536;50.860;4.286;2023-12-14T12:51:09;8.13;;;3.00;;
22737;SDS011;11536;50.860;4.286;2023-12-14T12:53:34;10.35;;;3.13;;
22737;SDS011;11536;50.860;4.286;2023-12-14T12:56:00;8.52;;;3.13;;
22737;SDS011;11536;50.860;4.286;2023-12-14T12:58:26;9.05;;;2.85;;
22737;SDS011;11536;50.860;4.286;2023-12-14T13:00:53;8.88;;;2.90;;
22737;SDS011;11536;50.860;4.286;2023-12-14T13:03:19;7.60;;;3.58;;
22737;SDS011;11536;50.860;4.286;2023-12-14T13:05:44;6.13;;;2.33;;
22737;SDS011;11536;50.860;4.286;2023-12-14T13:08:10;7.50;;;2.88;;
22737;SDS011;11536;50.860;4.286;2023-12-14T13:10:36;10.02;;;3.10;;
22737;SDS011;11536;50.860;4.286;2023-12-14T13:13:04;8.32;;;2.45;;
22737;SDS011;11536;50.860;4.286;2023-12-14T13:15:31;10.65;;;3.33;;
22737;SDS011;11536;50.860;4.286;2023-12-14T13:17:57;9.45;;;3.72;;
22737;SDS011;11536;50.860;4.286;2023-12-14T13:20:23;10.88;;;3.55;;
22737;SDS011;11536;50.860;4.286;2023-12-14T13:22:52;10.13;;;3.63;;
22737;SDS011;11536;50.860;4.286;2023-12-14T13:25:17;9.63;;;3.42;;
22737;SDS011;11536;50.860;4.286;2023-12-14T13:27:44;7.68;;;3.10;;
22737;SDS011;11536;50.860;4.286;2023-12-14T13:30:10;9.60;;;3.75;;
22737;SDS011;11536;50.860;4.286;2023-12-14T13:32:43;6.95;;;3.22;;
22737;SDS011;11536;50.860;4.286;2023-12-14T13:35:09;9.50;;;3.30;;
22737;SDS011;11536;50.860;4.286;2023-12-14T13:37:34;8.63;;;3.33;;
22737;SDS011;11536;50.860;4.286;2023-12-14T13:40:00;10.18;;;3.70;;
22737;SDS011;11536;50.860;4.286;2023-12-14T13:42:26;9.27;;;3.20;;
22737;SDS011;11536;50.860;4.286;2023-12-14T13:44:51;9.32;;;2.92;;
22737;SDS011;11536;50.860;4.286;2023-12-14T13:47:18;8.88;;;3.03;;
22737;SDS011;11536;50.860;4.286;2023-12-14T13:49:44;14.70;;;3.45;;
22737;SDS011;11536;50.860;4.286;2023-12-14T13:52:09;8.73;;;3.50;;
22737;SDS011;11536;50.860;4.286;2023-12-14T13:54:35;9.88;;;3.35;;
22737;SDS011;11536;50.860;4.286;2023-12-14T13:57:02;9.85;;;3.42;;
22737;SDS011;11536;50.860;4.286;2023-12-14T13:59:28;8.75;;;3.30;;
22737;SDS011;11536;50.860;4.286;2023-12-14T14:01:53;9.55;;;3.50;;
22737;SDS011;11536;50.860;4.286;2023-12-14T14:04:19;11.52;;;3.67;;
22737;SDS011;11536;50.860;4.286;2023-12-14T14:06:45;9.68;;;3.35;;
22737;SDS011;11536;50.860;4.286;2023-12-14T14:09:11;9.88;;;4.20;;
22737;SDS011;11536;50.860;4.286;2023-12-14T14:11:37;8.00;;;3.67;;
22737;SDS011;11536;50.860;4.286;2023-12-14T14:14:03;9.50;;;3.72;;
22737;SDS011;11536;50.860;4.286;2023-12-14T14:16:31;9.55;;;3.38;;
22737;SDS011;11536;50.860;4.286;2023-12-14T14:18:57;11.18;;;3.67;;
22737;SDS011;11536;50.860;4.286;2023-12-14T14:21:23;9.35;;;3.45;;
22737;SDS011;11536;50.860;4.286;2023-12-14T14:23:49;7.85;;;3.10;;
22737;SDS011;11536;50.860;4.286;2023-12-14T14:26:15;9.52;;;3.35;;
22737;SDS011;11536;50.860;4.286;2023-12-14T14:28:40;10.35;;;3.80;;
22737;SDS011;11536;50.860;4.286;2023-12-14T14:31:06;11.55;;;3.35;;
22737;SDS011;11536;50.860;4.286;2023-12-14T14:33:32;10.70;;;3.67;;
22737;SDS011;11536;50.860;4.286;2023-12-14T14:35:57;10.70;;;3.55;;
22737;SDS011;11536;50.860;4.286;2023-12-14T14:38:23;8.50;;;3.15;;